createdAt,value
2022-08-21T09:58:03.883Z,68.74
2022-08-21T10:00:38.557Z,70.33
2022-08-21T10:03:17.188Z,69.37
2022-08-21T10:06:21.938Z,70.62
2022-08-21T10:08:51.008Z,69.87
2022-08-21T10:11:25.457Z,70.84
2022-08-21T10:14:09.079Z,69.60
2022-08-21T10:17:17.846Z,71.08
2022-08-21T10:20:15.834Z,70.69
2022-08-21T10:23:29.818Z,73.94
2022-08-21T10:26:16.482Z,71.69
2022-08-21T10:29:22.689Z,70.06
2022-08-21T10:32:26.015Z,66.60
2022-08-21T10:35:35.192Z,67.66
2022-08-21T10:38:23.485Z,62.47
2022-08-21T10:41:11.898Z,62.62
2022-08-21T10:44:02.281Z,62.00
2022-08-21T10:47:21.827Z,63.26
2022-08-21T10:50:19.297Z,65.25
2022-08-21T10:52:53.212Z,68.21
2022-08-21T10:55:42.369Z,69.39
2022-08-21T10:58:28.197Z,67.31
2022-08-21T11:01:18.177Z,66.68
2022-08-21T11:03:53.786Z,61.69
2022-08-21T11:06:32.382Z,61.82
2022-08-21T11:09:14.887Z,58.71
2022-08-21T11:12:11.446Z,57.32
2022-08-21T11:15:29.721Z,57.92
2022-08-21T11:18:35.036Z,58.79
2022-08-21T11:21:35.190Z,57.99
2022-08-21T11:24:40.263Z,56.49
2022-08-21T11:27:45.497Z,58.31
2022-08-21T11:30:15.317Z,57.75
2022-08-21T11:33:16.011Z,54.83
2022-08-21T11:36:05.352Z,55.84
2022-08-21T11:38:43.638Z,55.33
2022-08-21T11:41:31.579Z,55.16
2022-08-21T11:44:10.447Z,54.61
2022-08-21T11:47:08.268Z,54.96
2022-08-21T11:50:18.118Z,54.47
2022-08-21T11:53:12.749Z,54.13
2022-08-21T11:56:03.489Z,55.03
2022-08-21T11:58:33.832Z,54.48
2022-08-21T12:01:34.341Z,54.82
2022-08-21T12:04:32.060Z,54.80
2022-08-21T12:07:15.848Z,55.77
2022-08-21T12:09:58.323Z,54.89
2022-08-21T12:12:37.687Z,56.27
2022-08-21T12:15:21.116Z,55.31
2022-08-21T12:18:31.747Z,55.80
2022-08-21T12:21:05.359Z,55.80
2022-08-21T12:24:16.646Z,56.15
2022-08-21T12:27:14.933Z,56.55
2022-08-21T12:29:53.838Z,57.30
2022-08-21T12:32:44.309Z,58.17
2022-08-21T12:35:23.261Z,59.52
2022-08-21T12:38:46.502Z,60.33
2022-08-21T12:41:23.676Z,59.33
2022-08-21T12:44:08.410Z,58.23
2022-08-21T12:46:46.895Z,58.47
2022-08-21T12:49:25.777Z,57.39
2022-08-21T12:52:10.759Z,56.50
2022-08-21T12:54:44.355Z,57.33
2022-08-21T12:57:28.725Z,57.86
2022-08-21T13:00:08.181Z,57.20
2022-08-21T13:02:51.062Z,58.33
2022-08-21T13:05:41.177Z,58.07
2022-08-21T13:08:14.029Z,58.44
2022-08-21T13:10:44.261Z,57.20
2022-08-21T13:13:28.319Z,56.94
2022-08-21T13:16:07.463Z,57.39
2022-08-21T13:19:00.048Z,57.15
2022-08-21T13:21:41.731Z,55.34
2022-08-21T13:24:43.988Z,57.05
2022-08-21T13:27:29.444Z,55.97
2022-08-21T13:30:11.846Z,56.30
2022-08-21T13:32:48.252Z,57.25
2022-08-21T13:35:21.512Z,61.26
2022-08-21T13:37:53.269Z,60.70
2022-08-21T13:40:40.236Z,61.12
2022-08-21T13:43:23.423Z,61.54
2022-08-21T13:45:55.535Z,61.64
2022-08-21T13:48:29.101Z,62.28
2022-08-21T13:50:59.073Z,62.54
2022-08-21T13:53:42.112Z,64.81
2022-08-21T13:56:10.286Z,65.24
2022-08-21T13:58:48.106Z,66.45
2022-08-21T14:01:49.670Z,66.23
2022-08-21T14:04:27.872Z,66.59
2022-08-21T14:06:56.969Z,66.28
2022-08-21T14:09:44.095Z,66.19
2022-08-21T14:12:50.301Z,66.03
2022-08-21T14:15:25.622Z,65.99
2022-08-21T14:17:53.838Z,65.54
2022-08-21T14:20:36.190Z,64.36
2022-08-21T14:23:05.134Z,64.81
2022-08-21T14:25:45.050Z,64.18
2022-08-21T14:28:29.544Z,64.04
2022-08-21T14:30:58.912Z,63.47
2022-08-21T14:33:33.716Z,62.47
2022-08-21T14:36:03.451Z,62.28
2022-08-21T14:38:31.924Z,62.01
2022-08-21T14:41:30.480Z,61.33
2022-08-21T14:44:07.489Z,61.99
2022-08-21T14:46:45.855Z,62.74
2022-08-21T14:49:27.726Z,63.34
2022-08-21T14:51:59.011Z,63.99
2022-08-21T14:54:32.920Z,64.12
2022-08-21T14:57:12.021Z,64.17
2022-08-21T14:59:41.000Z,64.72
2022-08-21T15:02:10.914Z,62.83
2022-08-21T15:04:39.073Z,62.48
2022-08-21T15:07:07.234Z,61.53
2022-08-21T15:09:35.426Z,63.52
2022-08-21T15:12:05.300Z,64.54
2022-08-21T15:14:37.603Z,63.99
2022-08-21T15:17:08.405Z,63.13
2022-08-21T15:19:37.105Z,63.70
2022-08-21T15:22:06.318Z,64.06
2022-08-21T15:24:44.160Z,63.66
2022-08-21T15:27:13.541Z,63.58
2022-08-21T15:29:45.198Z,64.17
2022-08-21T15:32:30.090Z,65.39
2022-08-21T15:34:59.021Z,65.42
2022-08-21T15:37:27.446Z,65.13
2022-08-21T15:39:55.775Z,65.03
2022-08-21T15:42:26.144Z,64.50
2022-08-21T15:44:57.160Z,65.50
2022-08-21T15:47:38.733Z,66.65
2022-08-21T15:50:10.694Z,67.13
2022-08-21T15:52:39.163Z,66.62
2022-08-21T15:55:09.505Z,66.21
2022-08-21T15:57:39.290Z,66.49
2022-08-21T16:00:17.270Z,68.14
2022-08-21T16:02:52.016Z,67.91
2022-08-21T16:05:23.092Z,69.94
2022-08-21T16:07:52.305Z,69.56
2022-08-21T16:10:27.516Z,70.97
2022-08-21T16:13:04.486Z,71.47
2022-08-21T16:15:33.283Z,73.67
2022-08-21T16:18:01.501Z,75.60
2022-08-21T16:20:31.218Z,78.97
2022-08-21T16:23:00.335Z,80.79
2022-08-21T16:25:29.286Z,86.90
2022-08-21T16:28:02.093Z,90.51
2022-08-21T16:30:31.521Z,92.35
2022-08-21T16:33:03.680Z,93.86
2022-08-21T16:35:32.112Z,98.22
2022-08-21T16:38:00.855Z,100.00
2022-08-21T16:40:30.148Z,100.00
2022-08-21T16:42:58.513Z,100.00
2022-08-21T16:45:31.183Z,100.00
2022-08-21T16:48:04.750Z,100.00
2022-08-21T16:50:33.094Z,100.00
2022-08-21T16:53:01.214Z,100.00
2022-08-21T16:55:29.830Z,100.00
2022-08-21T16:57:58.253Z,100.00
2022-08-21T17:00:27.174Z,100.00
2022-08-21T17:02:58.068Z,100.00
2022-08-21T17:05:28.167Z,100.00
2022-08-21T17:07:56.738Z,100.00
2022-08-21T17:10:25.126Z,100.00
2022-08-21T17:12:58.878Z,100.00
2022-08-21T17:15:37.245Z,100.00
2022-08-21T17:18:08.722Z,100.00
2022-08-21T17:20:42.506Z,100.00
2022-08-21T17:23:11.496Z,100.00
2022-08-21T17:25:43.815Z,100.00
2022-08-21T17:28:26.182Z,100.00
2022-08-21T17:30:58.905Z,100.00
2022-08-21T17:33:29.625Z,100.00
2022-08-21T17:35:58.056Z,100.00
2022-08-21T17:38:27.890Z,100.00
2022-08-21T17:40:56.475Z,100.00
2022-08-21T17:43:25.541Z,100.00
2022-08-21T17:45:54.142Z,100.00
2022-08-21T17:48:25.459Z,100.00
2022-08-21T17:50:53.706Z,100.00
2022-08-21T17:53:22.430Z,100.00
2022-08-21T17:55:51.694Z,100.00
2022-08-21T17:58:19.794Z,100.00
2022-08-21T18:00:50.222Z,100.00
2022-08-21T18:03:26.856Z,100.00
2022-08-21T18:05:57.070Z,100.00
2022-08-21T18:08:25.786Z,100.00
2022-08-21T18:10:54.318Z,100.00
2022-08-21T18:13:37.231Z,100.00
2022-08-21T18:16:07.706Z,100.00
2022-08-21T18:18:43.406Z,100.00
2022-08-21T18:21:11.847Z,100.00
2022-08-21T18:23:44.465Z,100.00
2022-08-21T18:26:28.365Z,100.00
2022-08-21T18:29:00.693Z,100.00
2022-08-21T18:31:36.205Z,100.00
2022-08-21T18:34:20.175Z,100.00
2022-08-21T18:36:52.925Z,100.00
2022-08-21T18:39:38.244Z,100.00
2022-08-21T18:42:12.830Z,100.00
2022-08-21T18:44:44.304Z,100.00
2022-08-21T18:47:29.859Z,100.00
2022-08-21T18:49:58.142Z,100.00
2022-08-21T18:55:17.586Z,100.00
2022-08-21T18:57:59.307Z,100.00
2022-08-21T19:00:33.697Z,100.00
2022-08-21T19:03:02.545Z,100.00
2022-08-21T19:05:35.311Z,100.00
2022-08-21T19:08:05.008Z,100.00
2022-08-21T19:10:34.059Z,100.00
2022-08-21T19:13:04.741Z,100.00
2022-08-21T19:15:39.089Z,100.00
2022-08-21T19:18:15.255Z,100.00
2022-08-21T19:20:47.365Z,100.00
2022-08-21T19:23:17.473Z,100.00
2022-08-21T19:25:51.699Z,100.00
2022-08-21T19:28:33.870Z,100.00
2022-08-21T19:31:19.762Z,100.00
2022-08-21T19:34:12.181Z,100.00
2022-08-21T19:36:42.244Z,100.00
2022-08-21T19:39:12.759Z,100.00
2022-08-21T19:41:51.189Z,100.00
2022-08-21T19:44:23.764Z,100.00
2022-08-21T19:46:55.124Z,100.00
2022-08-21T19:49:33.910Z,100.00
2022-08-21T19:52:13.137Z,100.00
2022-08-21T19:54:42.589Z,100.00
2022-08-21T19:57:12.385Z,100.00
2022-08-21T19:59:42.281Z,100.00
2022-08-21T20:02:14.622Z,100.00
2022-08-21T20:04:53.601Z,100.00
2022-08-21T20:07:26.729Z,100.00
2022-08-21T20:09:56.479Z,100.00
2022-08-21T20:12:25.366Z,100.00
2022-08-21T20:14:54.186Z,100.00
2022-08-21T20:17:25.302Z,100.00
2022-08-21T20:22:42.452Z,100.00
2022-08-21T20:25:10.867Z,100.00
2022-08-21T20:27:40.499Z,100.00
2022-08-21T20:30:10.814Z,100.00
2022-08-21T20:32:39.171Z,100.00
2022-08-21T20:37:59.698Z,100.00
2022-08-21T20:40:32.739Z,100.00
2022-08-21T20:43:02.851Z,100.00
2022-08-21T20:45:34.062Z,100.00
2022-08-21T20:48:25.974Z,100.00
2022-08-21T20:51:16.197Z,100.00
2022-08-21T20:53:59.256Z,100.00
2022-08-21T20:56:58.353Z,100.00
2022-08-21T20:59:51.865Z,100.00
2022-08-21T21:02:55.925Z,100.00
2022-08-21T21:05:28.490Z,100.00
2022-08-21T21:08:23.992Z,100.00
2022-08-21T21:11:18.618Z,100.00
2022-08-21T21:13:55.828Z,100.00
2022-08-21T21:16:32.369Z,100.00
2022-08-21T21:19:10.962Z,100.00
2022-08-21T21:21:57.046Z,100.00
2022-08-21T21:24:58.049Z,100.00
2022-08-21T21:27:35.439Z,100.00
2022-08-21T21:30:27.986Z,100.00
2022-08-21T21:32:56.524Z,100.00
2022-08-21T21:35:59.502Z,100.00
2022-08-21T21:39:11.511Z,100.00
2022-08-21T21:42:18.396Z,100.00
2022-08-21T21:45:25.195Z,100.00
2022-08-21T21:48:28.223Z,100.00
2022-08-21T21:51:03.584Z,100.00
2022-08-21T21:54:11.397Z,100.00
2022-08-21T21:57:12.157Z,100.00
2022-08-21T21:59:57.391Z,100.00
2022-08-21T22:02:42.670Z,100.00
2022-08-21T22:05:49.553Z,100.00
2022-08-21T22:08:29.952Z,100.00
2022-08-21T22:11:29.264Z,100.00
2022-08-21T22:14:10.376Z,100.00
2022-08-21T22:16:39.529Z,100.00
2022-08-21T22:19:20.257Z,100.00
2022-08-21T22:22:12.846Z,100.00
2022-08-21T22:24:48.491Z,100.00
2022-08-21T22:27:23.536Z,100.00
2022-08-21T22:30:00.221Z,100.00
2022-08-21T22:32:45.902Z,100.00
2022-08-21T22:35:21.514Z,100.00
2022-08-21T22:38:00.197Z,100.00
2022-08-21T22:40:34.994Z,100.00
2022-08-21T22:43:09.471Z,100.00
2022-08-21T22:46:01.897Z,100.00
2022-08-21T22:48:36.344Z,100.00
2022-08-21T22:51:23.210Z,100.00
2022-08-21T22:53:57.951Z,100.00
2022-08-21T22:56:43.293Z,100.00
2022-08-21T22:59:29.391Z,100.00
2022-08-21T23:02:02.607Z,100.00
2022-08-21T23:04:33.789Z,100.00
2022-08-21T23:07:05.963Z,100.00
2022-08-21T23:09:45.911Z,100.00
2022-08-21T23:12:37.446Z,100.00
2022-08-21T23:15:17.982Z,100.00
2022-08-21T23:18:33.404Z,100.00
2022-08-21T23:21:26.653Z,100.00
2022-08-21T23:24:34.555Z,100.00
2022-08-21T23:27:44.631Z,100.00
2022-08-21T23:30:22.147Z,100.00
2022-08-21T23:33:17.452Z,100.00
2022-08-21T23:36:43.589Z,100.00
2022-08-21T23:39:34.459Z,100.00
2022-08-21T23:42:38.748Z,100.00
2022-08-21T23:45:54.651Z,100.00
2022-08-21T23:48:32.578Z,100.00
2022-08-21T23:51:03.038Z,100.00
2022-08-21T23:54:07.350Z,100.00
2022-08-21T23:57:01.697Z,100.00
2022-08-21T23:59:35.388Z,100.00
